createdAt,value
2022-12-07T00:02:05.588Z,42.50
2022-12-07T00:08:16.795Z,41.60
2022-12-07T00:14:25.511Z,41.00
2022-12-07T00:20:34.854Z,40.90
2022-12-07T00:26:47.006Z,41.10
2022-12-07T00:32:56.673Z,41.10
2022-12-07T00:39:06.963Z,41.00
2022-12-07T00:45:18.723Z,41.00
2022-12-07T00:51:30.005Z,41.20
2022-12-07T00:57:40.998Z,41.40
2022-12-07T01:03:49.935Z,41.60
2022-12-07T01:10:05.848Z,40.70
2022-12-07T01:16:14.930Z,41.00
2022-12-07T01:22:22.373Z,41.10
2022-12-07T01:28:30.991Z,41.30
2022-12-07T01:34:40.452Z,41.10
2022-12-07T01:40:49.969Z,41.10
2022-12-07T01:46:57.907Z,41.10
2022-12-07T01:53:10.636Z,41.00
2022-12-07T01:59:19.958Z,41.30
2022-12-07T02:05:30.848Z,41.30
2022-12-07T02:11:40.200Z,41.30
2022-12-07T02:17:52.951Z,41.70
2022-12-07T02:24:22.764Z,42.00
2022-12-07T02:30:33.337Z,42.00
2022-12-07T02:36:44.669Z,41.70
2022-12-07T02:42:57.893Z,41.50
2022-12-07T02:49:08.037Z,41.60
2022-12-07T02:55:17.373Z,41.80
2022-12-07T03:01:32.646Z,41.90
2022-12-07T03:07:46.444Z,41.40
2022-12-07T03:13:55.922Z,41.30
2022-12-07T03:20:07.361Z,41.40
2022-12-07T03:26:18.549Z,41.20
2022-12-07T03:32:28.233Z,42.30
2022-12-07T03:38:36.754Z,41.40
2022-12-07T03:44:45.854Z,41.50
2022-12-07T03:50:57.203Z,42.20
2022-12-07T03:57:07.349Z,41.80
2022-12-07T04:03:16.627Z,41.70
2022-12-07T04:09:27.006Z,41.10
2022-12-07T04:15:37.331Z,41.00
2022-12-07T04:21:47.555Z,41.10
2022-12-07T04:27:55.514Z,41.20
2022-12-07T04:34:04.455Z,41.10
2022-12-07T04:40:15.968Z,40.80
2022-12-07T04:46:25.251Z,41.00
2022-12-07T04:52:39.956Z,40.90
2022-12-07T04:58:50.159Z,40.90
2022-12-07T05:04:57.649Z,40.90
2022-12-07T05:11:07.042Z,40.50
2022-12-07T05:17:15.154Z,40.50
2022-12-07T05:23:23.937Z,40.40
2022-12-07T05:29:36.748Z,40.20
2022-12-07T05:35:46.521Z,40.00
2022-12-07T05:42:10.682Z,39.70
2022-12-07T05:48:19.837Z,39.70
2022-12-07T05:54:28.899Z,39.70
2022-12-07T06:00:37.945Z,39.80
2022-12-07T06:06:49.334Z,39.70
2022-12-07T06:13:01.055Z,39.60
2022-12-07T06:19:11.305Z,39.70
2022-12-07T06:25:19.734Z,39.70
2022-12-07T06:31:27.427Z,39.80
2022-12-07T06:37:38.340Z,39.70
2022-12-07T06:43:55.801Z,39.60
2022-12-07T06:50:01.549Z,39.80
2022-12-07T06:56:12.987Z,39.80
2022-12-07T07:02:22.750Z,39.80
2022-12-07T07:08:32.535Z,39.70
2022-12-07T07:14:45.494Z,39.70
2022-12-07T07:20:56.749Z,39.80
2022-12-07T07:27:13.840Z,39.80
2022-12-07T07:33:25.937Z,39.80
2022-12-07T07:39:36.531Z,40.40
2022-12-07T07:45:49.458Z,39.80
2022-12-07T07:51:58.700Z,40.00
2022-12-07T07:58:08.856Z,39.80
2022-12-07T08:04:19.784Z,39.80
2022-12-07T08:10:28.871Z,39.80
2022-12-07T08:16:37.016Z,39.90
2022-12-07T08:22:46.138Z,40.00
2022-12-07T08:28:57.332Z,40.10
2022-12-07T08:35:05.620Z,40.10
2022-12-07T08:41:17.112Z,39.90
2022-12-07T08:47:26.250Z,40.10
2022-12-07T08:53:33.920Z,40.00
2022-12-07T08:59:43.230Z,40.00
2022-12-07T09:05:50.625Z,40.10
2022-12-07T09:11:59.564Z,40.00
2022-12-07T09:18:08.010Z,40.00
2022-12-07T09:24:21.863Z,40.00
2022-12-07T09:30:31.104Z,40.00
2022-12-07T09:36:39.327Z,39.90
2022-12-07T09:42:50.282Z,39.80
2022-12-07T09:48:59.636Z,39.90
2022-12-07T09:55:15.481Z,40.00
2022-12-07T10:01:30.325Z,39.90
2022-12-07T10:07:39.728Z,39.90
2022-12-07T10:13:52.540Z,39.90
2022-12-07T10:20:15.841Z,40.00
2022-12-07T10:26:34.774Z,40.00
2022-12-07T10:32:44.009Z,40.00
2022-12-07T10:38:53.155Z,39.90
2022-12-07T10:45:13.401Z,39.80
2022-12-07T10:51:26.851Z,39.80
2022-12-07T10:57:40.935Z,39.80
2022-12-07T11:03:57.680Z,39.90
2022-12-07T11:10:11.137Z,39.90
2022-12-07T11:16:26.591Z,40.00
2022-12-07T11:22:40.676Z,39.90
2022-12-07T11:28:56.703Z,39.90
2022-12-07T11:35:12.027Z,39.90
2022-12-07T11:41:21.954Z,39.90
2022-12-07T11:47:33.814Z,40.10
2022-12-07T11:53:44.403Z,40.00
2022-12-07T11:59:54.592Z,39.90
2022-12-07T12:06:03.891Z,39.90
2022-12-07T12:19:02.982Z,40.00
2022-12-07T12:25:14.446Z,40.10
2022-12-07T12:31:29.895Z,40.20
2022-12-07T12:37:49.947Z,40.40
2022-12-07T12:43:58.080Z,40.50
2022-12-07T12:56:53.919Z,40.50
2022-12-07T13:03:08.837Z,40.40
2022-12-07T13:09:24.078Z,40.20
2022-12-07T13:15:56.111Z,39.80
2022-12-07T13:22:08.641Z,40.90
2022-12-07T13:28:20.902Z,41.00
2022-12-07T13:34:37.702Z,41.10
2022-12-07T13:40:48.215Z,40.20
2022-12-07T13:47:02.947Z,40.40
2022-12-07T13:53:19.540Z,41.40
2022-12-07T13:59:28.907Z,41.60
2022-12-07T14:05:40.211Z,40.90
2022-12-07T14:11:51.009Z,40.50
2022-12-07T14:18:25.335Z,40.90
2022-12-07T14:24:49.190Z,41.70
2022-12-07T14:31:08.365Z,42.30
2022-12-07T14:37:34.019Z,42.30
2022-12-07T14:44:07.032Z,41.20
2022-12-07T14:50:06.325Z,41.10
2022-12-07T14:56:24.055Z,42.00
2022-12-07T15:02:35.840Z,42.00
2022-12-07T15:08:47.657Z,41.80
2022-12-07T15:14:55.887Z,41.10
2022-12-07T15:21:05.304Z,41.10
2022-12-07T15:27:14.787Z,41.50
2022-12-07T15:33:23.934Z,41.80
2022-12-07T15:39:35.404Z,41.70
2022-12-07T15:45:46.837Z,41.20
2022-12-07T15:51:54.275Z,41.20
2022-12-07T15:58:02.782Z,41.30
2022-12-07T16:04:12.549Z,41.70
2022-12-07T16:10:22.930Z,41.80
2022-12-07T16:16:31.075Z,41.30
2022-12-07T16:22:40.220Z,41.20
2022-12-07T16:28:50.801Z,41.20
2022-12-07T16:35:00.952Z,41.70
2022-12-07T16:41:10.725Z,41.70
2022-12-07T16:47:21.521Z,41.10
2022-12-07T16:53:31.019Z,41.00
2022-12-07T16:59:41.156Z,41.00
2022-12-07T17:05:54.150Z,41.40
2022-12-07T17:12:06.856Z,41.40
2022-12-07T17:18:15.524Z,41.80
2022-12-07T17:24:26.600Z,41.90
2022-12-07T17:30:41.778Z,41.80
2022-12-07T17:36:53.114Z,41.00
2022-12-07T17:43:04.793Z,41.10
2022-12-07T17:49:15.927Z,41.30
2022-12-07T17:55:29.702Z,41.50
2022-12-07T18:01:41.440Z,42.50
2022-12-07T18:07:54.459Z,42.40
2022-12-07T18:14:05.910Z,41.30
2022-12-07T18:20:17.585Z,41.40
2022-12-07T18:26:25.433Z,41.70
2022-12-07T18:32:36.491Z,41.80
2022-12-07T18:38:44.542Z,41.90
2022-12-07T18:44:55.754Z,42.00
2022-12-07T18:51:09.470Z,41.90
2022-12-07T18:57:19.413Z,41.80
2022-12-07T19:03:33.928Z,42.70
2022-12-07T19:09:46.771Z,41.80
2022-12-07T19:15:56.203Z,41.30
2022-12-07T19:22:07.214Z,41.60
2022-12-07T19:28:17.938Z,41.80
2022-12-07T19:34:27.721Z,41.80
2022-12-07T19:40:38.873Z,42.30
2022-12-07T19:46:50.607Z,42.80
2022-12-07T19:52:59.007Z,42.70
2022-12-07T19:59:08.318Z,42.90
2022-12-07T20:05:19.341Z,42.80
2022-12-07T20:11:58.018Z,42.90
2022-12-07T20:18:08.703Z,42.30
2022-12-07T20:24:20.469Z,42.30
2022-12-07T20:30:34.195Z,41.80
2022-12-07T20:36:43.499Z,42.00
2022-12-07T20:42:54.258Z,42.20
2022-12-07T20:49:04.614Z,42.20
2022-12-07T20:55:14.522Z,42.10
2022-12-07T21:01:28.847Z,42.00
2022-12-07T21:07:41.831Z,42.20
2022-12-07T21:13:50.989Z,42.20
2022-12-07T21:20:03.134Z,42.20
2022-12-07T21:26:16.045Z,42.00
2022-12-07T21:32:24.358Z,41.50
2022-12-07T21:38:32.662Z,41.70
2022-12-07T21:44:44.061Z,41.80
2022-12-07T21:50:56.773Z,42.00
2022-12-07T21:57:06.616Z,42.00
2022-12-07T22:03:15.944Z,42.00
2022-12-07T22:09:24.938Z,42.10
2022-12-07T22:15:37.073Z,41.90
2022-12-07T22:21:47.757Z,41.50
2022-12-07T22:27:58.052Z,41.70
2022-12-07T22:34:08.250Z,42.20
2022-12-07T22:40:17.241Z,42.10
2022-12-07T22:46:27.654Z,42.40
2022-12-07T22:52:38.403Z,42.10
2022-12-07T22:58:48.419Z,41.30
2022-12-07T23:04:59.975Z,41.70
2022-12-07T23:11:11.727Z,42.60
2022-12-07T23:17:21.756Z,43.00
2022-12-07T23:23:31.289Z,43.00
2022-12-07T23:29:43.258Z,43.80
2022-12-07T23:35:54.251Z,43.90
2022-12-07T23:42:06.222Z,43.90
2022-12-07T23:48:15.521Z,44.30
2022-12-07T23:54:28.038Z,42.40
